sensor_id;sensor_type;location;lat;lon;timestamp;P1;durP1;ratioP1;P2;durP2;ratioP2
51854;SDS011;37895;53.240;6.572;2024-03-25T00:01:45;14.45;;;5.35;;
51854;SDS011;37895;53.240;6.572;2024-03-25T00:04:11;18.90;;;6.07;;
51854;SDS011;37895;53.240;6.572;2024-03-25T00:06:36;14.88;;;4.97;;
51854;SDS011;37895;53.240;6.572;2024-03-25T00:09:03;15.30;;;5.68;;
51854;SDS011;37895;53.240;6.572;2024-03-25T00:11:30;17.95;;;6.40;;
51854;SDS011;37895;53.240;6.572;2024-03-25T00:13:55;19.85;;;5.82;;
51854;SDS011;37895;53.240;6.572;2024-03-25T00:16:21;16.10;;;5.65;;
51854;SDS011;37895;53.240;6.572;2024-03-25T00:18:47;17.15;;;7.03;;
51854;SDS011;37895;53.240;6.572;2024-03-25T00:21:13;14.40;;;5.00;;
51854;SDS011;37895;53.240;6.572;2024-03-25T00:23:38;12.02;;;4.78;;
51854;SDS011;37895;53.240;6.572;2024-03-25T00:26:04;16.45;;;5.13;;
51854;SDS011;37895;53.240;6.572;2024-03-25T00:28:29;17.90;;;5.75;;
51854;SDS011;37895;53.240;6.572;2024-03-25T00:30:55;11.48;;;4.28;;
51854;SDS011;37895;53.240;6.572;2024-03-25T00:33:21;13.38;;;4.93;;
51854;SDS011;37895;53.240;6.572;2024-03-25T00:35:47;14.40;;;5.22;;
51854;SDS011;37895;53.240;6.572;2024-03-25T00:38:12;18.17;;;5.25;;
51854;SDS011;37895;53.240;6.572;2024-03-25T00:40:38;18.45;;;6.03;;
51854;SDS011;37895;53.240;6.572;2024-03-25T00:43:04;16.63;;;5.13;;
51854;SDS011;37895;53.240;6.572;2024-03-25T00:45:29;18.17;;;5.65;;
51854;SDS011;37895;53.240;6.572;2024-03-25T00:47:57;21.63;;;6.35;;
51854;SDS011;37895;53.240;6.572;2024-03-25T00:50:24;16.60;;;5.10;;
51854;SDS011;37895;53.240;6.572;2024-03-25T00:52:50;20.73;;;5.80;;
51854;SDS011;37895;53.240;6.572;2024-03-25T00:55:16;17.70;;;5.97;;
51854;SDS011;37895;53.240;6.572;2024-03-25T00:57:41;18.08;;;6.50;;
51854;SDS011;37895;53.240;6.572;2024-03-25T01:00:07;24.52;;;5.88;;
51854;SDS011;37895;53.240;6.572;2024-03-25T01:02:34;20.00;;;5.75;;
51854;SDS011;37895;53.240;6.572;2024-03-25T01:04:59;20.25;;;6.15;;
51854;SDS011;37895;53.240;6.572;2024-03-25T01:07:25;29.42;;;6.95;;
51854;SDS011;37895;53.240;6.572;2024-03-25T01:09:51;19.65;;;6.68;;
51854;SDS011;37895;53.240;6.572;2024-03-25T01:12:16;17.80;;;5.88;;
51854;SDS011;37895;53.240;6.572;2024-03-25T01:14:42;14.93;;;5.80;;
51854;SDS011;37895;53.240;6.572;2024-03-25T01:17:07;18.45;;;5.65;;
51854;SDS011;37895;53.240;6.572;2024-03-25T01:19:33;15.77;;;5.30;;
51854;SDS011;37895;53.240;6.572;2024-03-25T01:21:59;16.35;;;5.45;;
51854;SDS011;37895;53.240;6.572;2024-03-25T01:24:24;16.73;;;5.05;;
51854;SDS011;37895;53.240;6.572;2024-03-25T01:26:50;17.70;;;5.22;;
51854;SDS011;37895;53.240;6.572;2024-03-25T01:29:16;18.17;;;6.07;;
51854;SDS011;37895;53.240;6.572;2024-03-25T01:31:43;18.45;;;5.40;;
51854;SDS011;37895;53.240;6.572;2024-03-25T01:34:09;18.25;;;5.22;;
51854;SDS011;37895;53.240;6.572;2024-03-25T01:36:34;22.27;;;5.13;;
51854;SDS011;37895;53.240;6.572;2024-03-25T01:39:00;13.80;;;5.78;;
51854;SDS011;37895;53.240;6.572;2024-03-25T01:41:25;18.15;;;5.20;;
51854;SDS011;37895;53.240;6.572;2024-03-25T01:43:51;16.17;;;5.72;;
51854;SDS011;37895;53.240;6.572;2024-03-25T01:46:17;15.70;;;6.18;;
51854;SDS011;37895;53.240;6.572;2024-03-25T01:48:44;14.32;;;5.35;;
51854;SDS011;37895;53.240;6.572;2024-03-25T01:53:36;14.43;;;4.68;;
51854;SDS011;37895;53.240;6.572;2024-03-25T01:56:02;13.98;;;5.00;;
51854;SDS011;37895;53.240;6.572;2024-03-25T01:58:29;10.18;;;4.80;;
51854;SDS011;37895;53.240;6.572;2024-03-25T02:00:55;14.65;;;5.30;;
51854;SDS011;37895;53.240;6.572;2024-03-25T02:03:24;17.67;;;5.50;;
51854;SDS011;37895;53.240;6.572;2024-03-25T02:05:50;10.88;;;4.68;;
51854;SDS011;37895;53.240;6.572;2024-03-25T02:08:22;11.30;;;4.63;;
51854;SDS011;37895;53.240;6.572;2024-03-25T02:10:49;19.60;;;4.97;;
51854;SDS011;37895;53.240;6.572;2024-03-25T02:13:15;13.23;;;4.50;;
51854;SDS011;37895;53.240;6.572;2024-03-25T02:15:41;15.60;;;4.63;;
51854;SDS011;37895;53.240;6.572;2024-03-25T02:18:07;14.63;;;4.70;;
51854;SDS011;37895;53.240;6.572;2024-03-25T02:20:32;13.30;;;5.72;;
51854;SDS011;37895;53.240;6.572;2024-03-25T02:22:58;16.83;;;5.65;;
51854;SDS011;37895;53.240;6.572;2024-03-25T02:25:24;15.77;;;4.88;;
51854;SDS011;37895;53.240;6.572;2024-03-25T02:27:50;19.83;;;5.10;;
51854;SDS011;37895;53.240;6.572;2024-03-25T02:30:15;16.15;;;4.68;;
51854;SDS011;37895;53.240;6.572;2024-03-25T02:32:41;13.80;;;4.75;;
51854;SDS011;37895;53.240;6.572;2024-03-25T02:35:08;14.75;;;4.88;;
51854;SDS011;37895;53.240;6.572;2024-03-25T02:37:36;17.00;;;5.43;;
51854;SDS011;37895;53.240;6.572;2024-03-25T02:40:04;15.90;;;5.10;;
51854;SDS011;37895;53.240;6.572;2024-03-25T02:42:34;19.63;;;4.78;;
51854;SDS011;37895;53.240;6.572;2024-03-25T02:45:05;17.75;;;5.00;;
51854;SDS011;37895;53.240;6.572;2024-03-25T02:47:31;12.60;;;4.70;;
51854;SDS011;37895;53.240;6.572;2024-03-25T02:49:56;16.02;;;5.55;;
51854;SDS011;37895;53.240;6.572;2024-03-25T02:52:22;19.50;;;5.35;;
51854;SDS011;37895;53.240;6.572;2024-03-25T02:54:48;15.65;;;4.88;;
51854;SDS011;37895;53.240;6.572;2024-03-25T02:57:13;13.45;;;4.53;;
51854;SDS011;37895;53.240;6.572;2024-03-25T02:59:39;16.30;;;4.72;;
51854;SDS011;37895;53.240;6.572;2024-03-25T03:02:04;13.43;;;4.70;;
51854;SDS011;37895;53.240;6.572;2024-03-25T03:04:30;20.52;;;5.53;;
51854;SDS011;37895;53.240;6.572;2024-03-25T03:06:56;13.68;;;4.53;;
51854;SDS011;37895;53.240;6.572;2024-03-25T03:09:22;13.68;;;5.03;;
51854;SDS011;37895;53.240;6.572;2024-03-25T03:11:47;16.70;;;5.30;;
51854;SDS011;37895;53.240;6.572;2024-03-25T03:14:13;14.70;;;4.38;;
51854;SDS011;37895;53.240;6.572;2024-03-25T03:16:39;15.00;;;5.13;;
51854;SDS011;37895;53.240;6.572;2024-03-25T03:19:05;13.68;;;4.53;;
51854;SDS011;37895;53.240;6.572;2024-03-25T03:21:30;16.58;;;4.60;;
51854;SDS011;37895;53.240;6.572;2024-03-25T03:23:56;15.13;;;4.68;;
51854;SDS011;37895;53.240;6.572;2024-03-25T03:26:22;13.43;;;4.07;;
51854;SDS011;37895;53.240;6.572;2024-03-25T03:28:52;13.38;;;4.28;;
51854;SDS011;37895;53.240;6.572;2024-03-25T03:31:24;8.73;;;3.65;;
51854;SDS011;37895;53.240;6.572;2024-03-25T03:33:51;16.40;;;4.47;;
51854;SDS011;37895;53.240;6.572;2024-03-25T03:36:17;11.70;;;4.65;;
51854;SDS011;37895;53.240;6.572;2024-03-25T03:38:45;16.95;;;5.25;;
51854;SDS011;37895;53.240;6.572;2024-03-25T03:41:11;15.40;;;4.85;;
51854;SDS011;37895;53.240;6.572;2024-03-25T03:43:36;17.70;;;4.63;;
51854;SDS011;37895;53.240;6.572;2024-03-25T03:46:02;15.88;;;5.55;;
51854;SDS011;37895;53.240;6.572;2024-03-25T03:48:28;14.82;;;4.47;;
51854;SDS011;37895;53.240;6.572;2024-03-25T03:53:20;13.38;;;4.72;;
51854;SDS011;37895;53.240;6.572;2024-03-25T03:55:55;14.48;;;4.47;;
51854;SDS011;37895;53.240;6.572;2024-03-25T03:58:21;11.63;;;4.90;;
51854;SDS011;37895;53.240;6.572;2024-03-25T04:03:13;13.57;;;5.57;;
51854;SDS011;37895;53.240;6.572;2024-03-25T04:05:38;15.00;;;4.68;;
51854;SDS011;37895;53.240;6.572;2024-03-25T04:08:04;13.43;;;5.07;;
51854;SDS011;37895;53.240;6.572;2024-03-25T04:10:30;11.43;;;4.50;;
51854;SDS011;37895;53.240;6.572;2024-03-25T04:12:56;14.02;;;5.13;;
51854;SDS011;37895;53.240;6.572;2024-03-25T04:15:21;12.95;;;4.80;;
51854;SDS011;37895;53.240;6.572;2024-03-25T04:17:47;15.18;;;5.03;;
51854;SDS011;37895;53.240;6.572;2024-03-25T04:20:16;14.18;;;4.38;;
51854;SDS011;37895;53.240;6.572;2024-03-25T04:22:42;13.68;;;4.65;;
51854;SDS011;37895;53.240;6.572;2024-03-25T04:25:08;13.77;;;4.78;;
51854;SDS011;37895;53.240;6.572;2024-03-25T04:27:40;13.85;;;4.63;;
51854;SDS011;37895;53.240;6.572;2024-03-25T04:30:07;12.25;;;4.25;;
51854;SDS011;37895;53.240;6.572;2024-03-25T04:32:33;15.80;;;4.93;;
51854;SDS011;37895;53.240;6.572;2024-03-25T04:35:00;11.00;;;4.70;;
51854;SDS011;37895;53.240;6.572;2024-03-25T04:37:26;15.13;;;4.65;;
51854;SDS011;37895;53.240;6.572;2024-03-25T04:39:53;13.85;;;4.45;;
51854;SDS011;37895;53.240;6.572;2024-03-25T04:42:22;17.45;;;4.47;;
51854;SDS011;37895;53.240;6.572;2024-03-25T04:44:48;15.40;;;4.88;;
51854;SDS011;37895;53.240;6.572;2024-03-25T04:47:14;11.48;;;4.40;;
51854;SDS011;37895;53.240;6.572;2024-03-25T04:49:40;15.05;;;5.50;;
51854;SDS011;37895;53.240;6.572;2024-03-25T04:52:06;12.40;;;4.47;;
51854;SDS011;37895;53.240;6.572;2024-03-25T04:54:32;13.95;;;4.78;;
51854;SDS011;37895;53.240;6.572;2024-03-25T04:56:57;17.95;;;4.85;;
51854;SDS011;37895;53.240;6.572;2024-03-25T04:59:23;17.83;;;4.90;;
51854;SDS011;37895;53.240;6.572;2024-03-25T05:01:49;13.68;;;4.50;;
51854;SDS011;37895;53.240;6.572;2024-03-25T05:04:14;15.80;;;5.22;;
51854;SDS011;37895;53.240;6.572;2024-03-25T05:06:40;14.55;;;5.13;;
51854;SDS011;37895;53.240;6.572;2024-03-25T05:09:06;9.90;;;4.40;;
51854;SDS011;37895;53.240;6.572;2024-03-25T05:11:32;16.83;;;4.85;;
51854;SDS011;37895;53.240;6.572;2024-03-25T05:13:58;18.52;;;5.57;;
51854;SDS011;37895;53.240;6.572;2024-03-25T05:16:24;17.00;;;5.82;;
51854;SDS011;37895;53.240;6.572;2024-03-25T05:18:49;15.05;;;4.65;;
51854;SDS011;37895;53.240;6.572;2024-03-25T05:21:15;14.82;;;5.68;;
51854;SDS011;37895;53.240;6.572;2024-03-25T05:23:41;19.95;;;5.50;;
51854;SDS011;37895;53.240;6.572;2024-03-25T05:26:07;18.67;;;5.28;;
51854;SDS011;37895;53.240;6.572;2024-03-25T05:28:33;14.30;;;4.90;;
51854;SDS011;37895;53.240;6.572;2024-03-25T05:31:08;15.80;;;5.72;;
51854;SDS011;37895;53.240;6.572;2024-03-25T05:33:34;17.83;;;5.18;;
51854;SDS011;37895;53.240;6.572;2024-03-25T05:35:59;17.20;;;5.70;;
51854;SDS011;37895;53.240;6.572;2024-03-25T05:40:51;12.68;;;5.47;;
51854;SDS011;37895;53.240;6.572;2024-03-25T05:43:17;16.00;;;4.65;;
51854;SDS011;37895;53.240;6.572;2024-03-25T05:45:54;15.80;;;5.40;;
51854;SDS011;37895;53.240;6.572;2024-03-25T05:48:20;18.88;;;6.13;;
51854;SDS011;37895;53.240;6.572;2024-03-25T05:50:46;18.63;;;6.47;;
51854;SDS011;37895;53.240;6.572;2024-03-25T05:53:30;24.75;;;6.05;;
51854;SDS011;37895;53.240;6.572;2024-03-25T05:55:56;18.60;;;6.07;;
51854;SDS011;37895;53.240;6.572;2024-03-25T05:58:23;18.48;;;5.32;;
51854;SDS011;37895;53.240;6.572;2024-03-25T06:00:48;13.50;;;5.30;;
51854;SDS011;37895;53.240;6.572;2024-03-25T06:03:14;15.35;;;5.70;;
51854;SDS011;37895;53.240;6.572;2024-03-25T06:05:41;14.10;;;5.60;;
51854;SDS011;37895;53.240;6.572;2024-03-25T06:08:06;18.20;;;5.43;;
51854;SDS011;37895;53.240;6.572;2024-03-25T06:13:04;23.50;;;5.90;;
51854;SDS011;37895;53.240;6.572;2024-03-25T06:15:30;16.92;;;5.25;;
51854;SDS011;37895;53.240;6.572;2024-03-25T06:17:55;21.52;;;5.93;;
51854;SDS011;37895;53.240;6.572;2024-03-25T06:20:21;15.57;;;5.18;;
51854;SDS011;37895;53.240;6.572;2024-03-25T06:22:47;21.25;;;5.50;;
51854;SDS011;37895;53.240;6.572;2024-03-25T06:25:12;18.83;;;5.15;;
51854;SDS011;37895;53.240;6.572;2024-03-25T06:27:38;12.27;;;4.43;;
51854;SDS011;37895;53.240;6.572;2024-03-25T06:30:04;16.15;;;5.28;;
51854;SDS011;37895;53.240;6.572;2024-03-25T06:32:48;21.60;;;5.53;;
51854;SDS011;37895;53.240;6.572;2024-03-25T06:35:32;12.75;;;4.75;;
51854;SDS011;37895;53.240;6.572;2024-03-25T06:37:58;15.32;;;6.28;;
51854;SDS011;37895;53.240;6.572;2024-03-25T06:40:23;15.32;;;5.43;;
51854;SDS011;37895;53.240;6.572;2024-03-25T06:42:49;12.93;;;4.70;;
51854;SDS011;37895;53.240;6.572;2024-03-25T06:45:15;15.88;;;5.55;;
51854;SDS011;37895;53.240;6.572;2024-03-25T06:47:42;20.35;;;5.03;;
51854;SDS011;37895;53.240;6.572;2024-03-25T06:50:08;20.00;;;5.20;;
51854;SDS011;37895;53.240;6.572;2024-03-25T06:52:33;12.23;;;4.38;;
51854;SDS011;37895;53.240;6.572;2024-03-25T06:54:59;11.20;;;4.90;;
51854;SDS011;37895;53.240;6.572;2024-03-25T06:57:25;16.30;;;4.85;;
51854;SDS011;37895;53.240;6.572;2024-03-25T06:59:50;15.88;;;5.70;;
51854;SDS011;37895;53.240;6.572;2024-03-25T07:02:18;11.75;;;4.53;;
51854;SDS011;37895;53.240;6.572;2024-03-25T07:04:44;14.27;;;4.93;;
51854;SDS011;37895;53.240;6.572;2024-03-25T07:07:11;14.90;;;4.40;;
51854;SDS011;37895;53.240;6.572;2024-03-25T07:09:36;13.27;;;5.18;;
51854;SDS011;37895;53.240;6.572;2024-03-25T07:12:02;12.88;;;4.97;;
51854;SDS011;37895;53.240;6.572;2024-03-25T07:14:28;19.17;;;5.90;;
51854;SDS011;37895;53.240;6.572;2024-03-25T07:16:55;15.90;;;5.28;;
51854;SDS011;37895;53.240;6.572;2024-03-25T07:19:21;13.63;;;4.75;;
51854;SDS011;37895;53.240;6.572;2024-03-25T07:21:46;13.73;;;5.60;;
51854;SDS011;37895;53.240;6.572;2024-03-25T07:24:12;11.07;;;4.78;;
51854;SDS011;37895;53.240;6.572;2024-03-25T07:26:37;16.05;;;5.80;;
51854;SDS011;37895;53.240;6.572;2024-03-25T07:29:03;12.40;;;4.75;;
51854;SDS011;37895;53.240;6.572;2024-03-25T07:31:28;14.00;;;4.57;;
51854;SDS011;37895;53.240;6.572;2024-03-25T07:33:54;13.25;;;4.97;;
51854;SDS011;37895;53.240;6.572;2024-03-25T07:36:19;13.98;;;4.95;;
51854;SDS011;37895;53.240;6.572;2024-03-25T07:38:45;15.55;;;5.03;;
51854;SDS011;37895;53.240;6.572;2024-03-25T07:41:11;11.38;;;4.82;;
51854;SDS011;37895;53.240;6.572;2024-03-25T07:43:37;12.10;;;4.25;;
51854;SDS011;37895;53.240;6.572;2024-03-25T07:46:02;15.50;;;4.90;;
51854;SDS011;37895;53.240;6.572;2024-03-25T07:48:28;15.60;;;5.10;;
51854;SDS011;37895;53.240;6.572;2024-03-25T07:50:54;16.13;;;4.10;;
51854;SDS011;37895;53.240;6.572;2024-03-25T07:53:19;14.90;;;4.60;;
51854;SDS011;37895;53.240;6.572;2024-03-25T07:55:45;10.55;;;4.32;;
51854;SDS011;37895;53.240;6.572;2024-03-25T07:58:10;11.52;;;4.43;;
51854;SDS011;37895;53.240;6.572;2024-03-25T08:00:36;9.95;;;4.03;;
51854;SDS011;37895;53.240;6.572;2024-03-25T08:03:02;11.15;;;4.28;;
51854;SDS011;37895;53.240;6.572;2024-03-25T08:05:29;10.52;;;3.53;;
51854;SDS011;37895;53.240;6.572;2024-03-25T08:07:55;11.52;;;3.85;;
51854;SDS011;37895;53.240;6.572;2024-03-25T08:10:21;12.70;;;3.90;;
51854;SDS011;37895;53.240;6.572;2024-03-25T08:12:46;10.82;;;3.42;;
51854;SDS011;37895;53.240;6.572;2024-03-25T08:15:13;9.23;;;3.65;;
51854;SDS011;37895;53.240;6.572;2024-03-25T08:17:39;7.40;;;3.30;;
51854;SDS011;37895;53.240;6.572;2024-03-25T08:20:05;10.40;;;3.38;;
51854;SDS011;37895;53.240;6.572;2024-03-25T08:22:30;11.23;;;4.35;;
51854;SDS011;37895;53.240;6.572;2024-03-25T08:24:56;9.75;;;3.42;;
51854;SDS011;37895;53.240;6.572;2024-03-25T08:27:22;8.75;;;3.63;;
51854;SDS011;37895;53.240;6.572;2024-03-25T08:29:47;9.52;;;4.00;;
51854;SDS011;37895;53.240;6.572;2024-03-25T08:32:16;7.50;;;3.47;;
51854;SDS011;37895;53.240;6.572;2024-03-25T08:34:43;12.48;;;3.97;;
51854;SDS011;37895;53.240;6.572;2024-03-25T08:37:09;18.55;;;4.72;;
51854;SDS011;37895;53.240;6.572;2024-03-25T08:39:34;12.02;;;3.90;;
51854;SDS011;37895;53.240;6.572;2024-03-25T08:42:00;9.20;;;3.67;;
51854;SDS011;37895;53.240;6.572;2024-03-25T08:44:26;13.40;;;3.65;;
51854;SDS011;37895;53.240;6.572;2024-03-25T08:46:52;8.63;;;3.50;;
51854;SDS011;37895;53.240;6.572;2024-03-25T08:49:17;13.25;;;4.35;;
51854;SDS011;37895;53.240;6.572;2024-03-25T08:51:43;9.40;;;3.38;;
51854;SDS011;37895;53.240;6.572;2024-03-25T08:54:09;9.35;;;3.70;;
51854;SDS011;37895;53.240;6.572;2024-03-25T08:56:34;7.53;;;3.60;;
51854;SDS011;37895;53.240;6.572;2024-03-25T08:59:00;10.90;;;3.45;;
51854;SDS011;37895;53.240;6.572;2024-03-25T09:01:26;10.32;;;4.00;;
51854;SDS011;37895;53.240;6.572;2024-03-25T09:03:52;9.70;;;3.90;;
51854;SDS011;37895;53.240;6.572;2024-03-25T09:06:17;9.65;;;3.40;;
51854;SDS011;37895;53.240;6.572;2024-03-25T09:08:43;10.02;;;3.78;;
51854;SDS011;37895;53.240;6.572;2024-03-25T09:11:28;9.43;;;3.30;;
51854;SDS011;37895;53.240;6.572;2024-03-25T09:13:54;8.43;;;3.63;;
51854;SDS011;37895;53.240;6.572;2024-03-25T09:16:20;7.47;;;3.30;;
51854;SDS011;37895;53.240;6.572;2024-03-25T09:18:45;7.80;;;3.20;;
51854;SDS011;37895;53.240;6.572;2024-03-25T09:21:11;5.35;;;2.80;;
51854;SDS011;37895;53.240;6.572;2024-03-25T09:23:37;9.93;;;3.20;;
51854;SDS011;37895;53.240;6.572;2024-03-25T09:26:03;10.38;;;3.53;;
51854;SDS011;37895;53.240;6.572;2024-03-25T09:28:29;10.32;;;3.28;;
51854;SDS011;37895;53.240;6.572;2024-03-25T09:30:54;6.95;;;3.13;;
51854;SDS011;37895;53.240;6.572;2024-03-25T09:33:20;11.48;;;3.67;;
51854;SDS011;37895;53.240;6.572;2024-03-25T09:35:45;12.35;;;3.63;;
51854;SDS011;37895;53.240;6.572;2024-03-25T09:38:12;8.07;;;3.58;;
51854;SDS011;37895;53.240;6.572;2024-03-25T09:40:41;6.38;;;3.00;;
51854;SDS011;37895;53.240;6.572;2024-03-25T09:43:10;8.52;;;3.00;;
51854;SDS011;37895;53.240;6.572;2024-03-25T09:45:47;8.45;;;3.35;;
51854;SDS011;37895;53.240;6.572;2024-03-25T09:48:14;5.97;;;2.88;;
51854;SDS011;37895;53.240;6.572;2024-03-25T09:50:41;8.27;;;3.30;;
51854;SDS011;37895;53.240;6.572;2024-03-25T09:53:09;6.13;;;3.15;;
51854;SDS011;37895;53.240;6.572;2024-03-25T09:55:34;11.05;;;3.55;;
51854;SDS011;37895;53.240;6.572;2024-03-25T09:58:00;12.07;;;3.25;;
51854;SDS011;37895;53.240;6.572;2024-03-25T10:00:27;9.02;;;3.80;;
51854;SDS011;37895;53.240;6.572;2024-03-25T10:02:54;13.98;;;3.40;;
51854;SDS011;37895;53.240;6.572;2024-03-25T10:05:19;9.60;;;3.42;;
51854;SDS011;37895;53.240;6.572;2024-03-25T10:07:45;12.30;;;3.28;;
51854;SDS011;37895;53.240;6.572;2024-03-25T10:10:11;7.00;;;2.97;;
51854;SDS011;37895;53.240;6.572;2024-03-25T10:12:36;9.38;;;3.65;;
51854;SDS011;37895;53.240;6.572;2024-03-25T10:15:02;9.38;;;3.40;;
51854;SDS011;37895;53.240;6.572;2024-03-25T10:17:31;8.82;;;3.65;;
51854;SDS011;37895;53.240;6.572;2024-03-25T10:19:57;9.85;;;3.42;;
51854;SDS011;37895;53.240;6.572;2024-03-25T10:22:23;10.80;;;4.00;;
51854;SDS011;37895;53.240;6.572;2024-03-25T10:24:48;6.75;;;3.00;;
51854;SDS011;37895;53.240;6.572;2024-03-25T10:27:19;10.15;;;3.38;;
51854;SDS011;37895;53.240;6.572;2024-03-25T10:29:55;8.93;;;3.45;;
51854;SDS011;37895;53.240;6.572;2024-03-25T10:32:21;10.98;;;3.72;;
51854;SDS011;37895;53.240;6.572;2024-03-25T10:34:49;9.23;;;3.33;;
51854;SDS011;37895;53.240;6.572;2024-03-25T10:37:15;8.75;;;3.15;;
51854;SDS011;37895;53.240;6.572;2024-03-25T10:39:49;10.20;;;3.65;;
51854;SDS011;37895;53.240;6.572;2024-03-25T10:42:18;10.32;;;3.40;;
51854;SDS011;37895;53.240;6.572;2024-03-25T10:44:44;9.23;;;3.60;;
51854;SDS011;37895;53.240;6.572;2024-03-25T10:47:14;9.57;;;3.40;;
51854;SDS011;37895;53.240;6.572;2024-03-25T10:49:51;10.65;;;4.43;;
51854;SDS011;37895;53.240;6.572;2024-03-25T10:52:22;13.43;;;3.92;;
51854;SDS011;37895;53.240;6.572;2024-03-25T10:54:49;10.10;;;3.80;;
51854;SDS011;37895;53.240;6.572;2024-03-25T10:57:15;11.52;;;4.03;;
51854;SDS011;37895;53.240;6.572;2024-03-25T10:59:45;10.68;;;3.92;;
51854;SDS011;37895;53.240;6.572;2024-03-25T11:02:11;9.95;;;4.07;;
51854;SDS011;37895;53.240;6.572;2024-03-25T11:04:37;10.80;;;3.55;;
51854;SDS011;37895;53.240;6.572;2024-03-25T11:07:09;11.15;;;4.00;;
51854;SDS011;37895;53.240;6.572;2024-03-25T11:09:35;9.45;;;3.47;;
51854;SDS011;37895;53.240;6.572;2024-03-25T11:12:01;12.02;;;4.43;;
51854;SDS011;37895;53.240;6.572;2024-03-25T11:14:28;15.35;;;4.18;;
51854;SDS011;37895;53.240;6.572;2024-03-25T11:16:54;10.05;;;3.78;;
51854;SDS011;37895;53.240;6.572;2024-03-25T11:19:20;10.02;;;3.55;;
51854;SDS011;37895;53.240;6.572;2024-03-25T11:21:51;10.57;;;4.03;;
51854;SDS011;37895;53.240;6.572;2024-03-25T11:24:27;10.10;;;3.83;;
51854;SDS011;37895;53.240;6.572;2024-03-25T11:26:53;8.53;;;3.37;;
51854;SDS011;37895;53.240;6.572;2024-03-25T11:29:19;12.30;;;4.03;;
51854;SDS011;37895;53.240;6.572;2024-03-25T11:31:45;10.55;;;3.40;;
51854;SDS011;37895;53.240;6.572;2024-03-25T11:34:13;11.38;;;3.38;;
51854;SDS011;37895;53.240;6.572;2024-03-25T11:36:39;12.60;;;3.97;;
51854;SDS011;37895;53.240;6.572;2024-03-25T11:39:04;9.50;;;3.30;;
51854;SDS011;37895;53.240;6.572;2024-03-25T11:41:34;15.35;;;3.53;;
51854;SDS011;37895;53.240;6.572;2024-03-25T11:44:10;9.88;;;3.30;;
51854;SDS011;37895;53.240;6.572;2024-03-25T11:46:39;8.00;;;3.20;;
51854;SDS011;37895;53.240;6.572;2024-03-25T11:51:35;10.13;;;3.83;;
51854;SDS011;37895;53.240;6.572;2024-03-25T11:54:04;10.88;;;3.97;;
51854;SDS011;37895;53.240;6.572;2024-03-25T11:56:32;14.95;;;4.30;;
51854;SDS011;37895;53.240;6.572;2024-03-25T11:59:01;8.52;;;3.22;;
51854;SDS011;37895;53.240;6.572;2024-03-25T12:01:28;11.82;;;3.60;;
51854;SDS011;37895;53.240;6.572;2024-03-25T12:03:54;9.55;;;3.67;;
51854;SDS011;37895;53.240;6.572;2024-03-25T12:06:19;8.88;;;3.15;;
51854;SDS011;37895;53.240;6.572;2024-03-25T12:08:45;10.88;;;3.25;;
51854;SDS011;37895;53.240;6.572;2024-03-25T12:11:30;11.90;;;3.83;;
51854;SDS011;37895;53.240;6.572;2024-03-25T12:13:55;11.45;;;4.10;;
51854;SDS011;37895;53.240;6.572;2024-03-25T12:16:21;10.93;;;3.80;;
51854;SDS011;37895;53.240;6.572;2024-03-25T12:18:48;13.70;;;4.05;;
51854;SDS011;37895;53.240;6.572;2024-03-25T12:21:13;11.20;;;4.03;;
51854;SDS011;37895;53.240;6.572;2024-03-25T12:23:40;11.25;;;4.05;;
51854;SDS011;37895;53.240;6.572;2024-03-25T12:26:07;9.35;;;3.45;;
51854;SDS011;37895;53.240;6.572;2024-03-25T12:31:06;9.30;;;3.78;;
51854;SDS011;37895;53.240;6.572;2024-03-25T12:33:42;10.75;;;3.53;;
51854;SDS011;37895;53.240;6.572;2024-03-25T12:36:13;12.07;;;3.50;;
51854;SDS011;37895;53.240;6.572;2024-03-25T12:38:38;12.52;;;4.05;;
51854;SDS011;37895;53.240;6.572;2024-03-25T12:41:07;10.20;;;4.35;;
51854;SDS011;37895;53.240;6.572;2024-03-25T12:43:34;9.68;;;4.35;;
51854;SDS011;37895;53.240;6.572;2024-03-25T12:46:00;9.45;;;3.75;;
51854;SDS011;37895;53.240;6.572;2024-03-25T12:48:28;10.45;;;3.70;;
51854;SDS011;37895;53.240;6.572;2024-03-25T12:50:54;10.00;;;3.95;;
51854;SDS011;37895;53.240;6.572;2024-03-25T12:53:20;9.68;;;4.07;;
51854;SDS011;37895;53.240;6.572;2024-03-25T12:55:45;12.48;;;3.60;;
51854;SDS011;37895;53.240;6.572;2024-03-25T12:58:12;13.50;;;4.25;;
51854;SDS011;37895;53.240;6.572;2024-03-25T13:00:38;12.85;;;3.80;;
51854;SDS011;37895;53.240;6.572;2024-03-25T13:03:10;11.50;;;3.92;;
51854;SDS011;37895;53.240;6.572;2024-03-25T13:05:36;13.07;;;3.95;;
51854;SDS011;37895;53.240;6.572;2024-03-25T13:08:02;11.35;;;3.70;;
51854;SDS011;37895;53.240;6.572;2024-03-25T13:10:31;9.07;;;3.75;;
51854;SDS011;37895;53.240;6.572;2024-03-25T13:12:57;8.60;;;3.30;;
51854;SDS011;37895;53.240;6.572;2024-03-25T13:15:23;8.23;;;3.33;;
51854;SDS011;37895;53.240;6.572;2024-03-25T13:17:48;8.13;;;3.20;;
51854;SDS011;37895;53.240;6.572;2024-03-25T13:20:14;9.18;;;4.10;;
51854;SDS011;37895;53.240;6.572;2024-03-25T13:22:40;8.65;;;3.22;;
51854;SDS011;37895;53.240;6.572;2024-03-25T13:25:06;10.73;;;3.88;;
51854;SDS011;37895;53.240;6.572;2024-03-25T13:27:32;9.18;;;3.28;;
51854;SDS011;37895;53.240;6.572;2024-03-25T13:29:58;10.60;;;3.45;;
51854;SDS011;37895;53.240;6.572;2024-03-25T13:32:24;10.50;;;3.50;;
51854;SDS011;37895;53.240;6.572;2024-03-25T13:34:50;10.15;;;3.70;;
51854;SDS011;37895;53.240;6.572;2024-03-25T13:37:15;8.30;;;2.78;;
51854;SDS011;37895;53.240;6.572;2024-03-25T13:39:41;14.57;;;4.20;;
51854;SDS011;37895;53.240;6.572;2024-03-25T13:42:07;14.20;;;4.38;;
51854;SDS011;37895;53.240;6.572;2024-03-25T13:44:32;12.48;;;3.53;;
51854;SDS011;37895;53.240;6.572;2024-03-25T13:46:58;12.93;;;4.10;;
51854;SDS011;37895;53.240;6.572;2024-03-25T13:49:24;10.70;;;3.90;;
51854;SDS011;37895;53.240;6.572;2024-03-25T13:51:55;12.73;;;3.85;;
51854;SDS011;37895;53.240;6.572;2024-03-25T13:54:23;9.85;;;3.55;;
51854;SDS011;37895;53.240;6.572;2024-03-25T13:56:50;10.60;;;3.80;;
51854;SDS011;37895;53.240;6.572;2024-03-25T13:59:16;9.32;;;3.60;;
51854;SDS011;37895;53.240;6.572;2024-03-25T14:01:41;12.05;;;4.20;;
51854;SDS011;37895;53.240;6.572;2024-03-25T14:04:07;10.23;;;3.47;;
51854;SDS011;37895;53.240;6.572;2024-03-25T14:06:33;11.43;;;3.88;;
51854;SDS011;37895;53.240;6.572;2024-03-25T14:08:59;10.05;;;3.70;;
51854;SDS011;37895;53.240;6.572;2024-03-25T14:11:24;10.60;;;3.78;;
51854;SDS011;37895;53.240;6.572;2024-03-25T14:13:50;11.77;;;3.63;;
51854;SDS011;37895;53.240;6.572;2024-03-25T14:16:16;9.88;;;3.88;;
51854;SDS011;37895;53.240;6.572;2024-03-25T14:18:42;10.57;;;4.25;;
51854;SDS011;37895;53.240;6.572;2024-03-25T14:21:07;12.60;;;3.80;;
51854;SDS011;37895;53.240;6.572;2024-03-25T14:23:33;11.05;;;3.92;;
51854;SDS011;37895;53.240;6.572;2024-03-25T14:25:58;11.98;;;4.03;;
51854;SDS011;37895;53.240;6.572;2024-03-25T14:28:24;10.40;;;3.80;;
51854;SDS011;37895;53.240;6.572;2024-03-25T14:30:50;10.05;;;4.25;;
51854;SDS011;37895;53.240;6.572;2024-03-25T14:33:16;11.60;;;3.80;;
51854;SDS011;37895;53.240;6.572;2024-03-25T14:35:42;12.32;;;4.07;;
51854;SDS011;37895;53.240;6.572;2024-03-25T14:38:08;11.18;;;3.97;;
51854;SDS011;37895;53.240;6.572;2024-03-25T14:40:37;12.18;;;3.80;;
51854;SDS011;37895;53.240;6.572;2024-03-25T14:43:05;11.73;;;3.95;;
51854;SDS011;37895;53.240;6.572;2024-03-25T14:45:32;8.85;;;3.60;;
51854;SDS011;37895;53.240;6.572;2024-03-25T14:47:57;10.40;;;3.78;;
51854;SDS011;37895;53.240;6.572;2024-03-25T14:50:23;12.05;;;4.10;;
51854;SDS011;37895;53.240;6.572;2024-03-25T14:52:49;11.95;;;4.10;;